Time;durP1;ratioP1;P1;durP2;ratioP2;P2;SDS_P1;SDS_P2;PMS_P1;PMS_P2;Temp;Humidity;BMP_temperature;BMP_pressure;BME280_temperature;BME280_humidity;BME280_pressure;Samples;Min_cycle;Max_cycle;Signal;HPM_P1;HPM_P2
2022/06/28 00:00:18;;;;;;;5.90;4.77;;;15.40;99.90;;;;;;5015588;28;21120;-76
2022/06/28 00:02:45;;;;;;;9.87;5.00;;;15.30;99.90;;;;;;5023812;28;21004;-76
2022/06/28 00:05:12;;;;;;;6.23;4.80;;;15.30;99.90;;;;;;5007574;28;20509;-76
2022/06/28 00:07:39;;;;;;;7.43;4.00;;;15.30;99.90;;;;;;5015245;28;20454;-76
2022/06/28 00:10:07;;;;;;;8.40;5.10;;;15.30;99.90;;;;;;5011404;28;21065;-76
2022/06/28 00:12:34;;;;;;;5.53;5.03;;;15.20;99.90;;;;;;5016755;28;20988;-76
2022/06/28 00:17:46;;;;;;;5.57;5.07;;;15.10;99.90;;;;;;5027705;28;20519;-76
2022/06/28 00:20:13;;;;;;;5.63;4.93;;;15.10;99.90;;;;;;5007584;28;20454;-76
2022/06/28 00:22:40;;;;;;;9.13;5.10;;;15.10;99.90;;;;;;5020124;28;20477;-76
2022/06/28 00:25:07;;;;;;;8.20;5.93;;;15.00;99.90;;;;;;5025459;28;20489;-76
2022/06/28 00:27:34;;;;;;;6.70;5.20;;;15.00;99.90;;;;;;5027602;28;20483;-76
2022/06/28 00:30:03;;;;;;;4.90;4.37;;;15.00;99.90;;;;;;5018213;28;20446;-76
2022/06/28 00:32:29;;;;;;;6.80;5.07;;;15.00;99.90;;;;;;5033248;28;20469;-76
2022/06/28 00:34:56;;;;;;;6.30;5.50;;;15.00;99.90;;;;;;5015223;28;20451;-76
2022/06/28 00:37:23;;;;;;;5.90;5.30;;;15.00;99.90;;;;;;5026196;28;20453;-76
2022/06/28 00:39:50;;;;;;;7.00;5.47;;;15.00;99.90;;;;;;5032987;28;20454;-76
2022/06/28 00:42:17;;;;;;;6.43;5.30;;;15.00;99.90;;;;;;5024489;28;20520;-76
2022/06/28 00:44:44;;;;;;;5.80;5.30;;;14.90;99.90;;;;;;5027236;28;20611;-76
2022/06/28 00:47:13;;;;;;;7.47;5.30;;;14.90;99.90;;;;;;5026997;28;20583;-76
2022/06/28 00:49:41;;;;;;;7.37;5.93;;;14.90;99.90;;;;;;5030602;28;20844;-76
2022/06/28 00:52:08;;;;;;;9.73;5.97;;;14.80;99.90;;;;;;5018150;28;20499;-76
2022/06/28 00:54:35;;;;;;;6.97;6.27;;;14.70;99.90;;;;;;5026234;28;20500;-76
2022/06/28 00:57:01;;;;;;;10.40;5.80;;;14.60;99.90;;;;;;5013724;28;20450;-76
2022/06/28 00:59:28;;;;;;;13.73;6.20;;;14.70;99.90;;;;;;5017538;28;20450;-76
2022/06/28 01:01:57;;;;;;;8.47;6.60;;;14.60;99.90;;;;;;5022993;28;20477;-76
2022/06/28 01:04:25;;;;;;;7.80;6.60;;;14.60;99.90;;;;;;5014932;28;20485;-76
2022/06/28 01:06:54;;;;;;;7.33;5.50;;;14.60;99.90;;;;;;5016279;28;20454;-76
2022/06/28 01:09:20;;;;;;;7.30;6.60;;;14.50;99.90;;;;;;5030209;28;20522;-76
2022/06/28 01:11:47;;;;;;;7.90;6.97;;;14.50;99.90;;;;;;5021539;28;20469;-76
2022/06/28 01:14:15;;;;;;;9.87;6.57;;;14.50;99.90;;;;;;5020077;28;20473;-76
2022/06/28 01:16:41;;;;;;;7.47;6.03;;;14.40;99.90;;;;;;5017476;28;20458;-76
2022/06/28 01:19:09;;;;;;;6.63;5.80;;;14.40;99.90;;;;;;5026771;28;20878;-76
2022/06/28 01:21:38;;;;;;;9.23;6.00;;;14.40;99.90;;;;;;5031231;28;20909;-76
2022/06/28 01:24:07;;;;;;;13.47;6.00;;;14.30;99.90;;;;;;5017863;28;20480;-76
2022/06/28 01:26:35;;;;;;;7.90;5.50;;;14.30;99.90;;;;;;5031458;28;21766;-77
2022/06/28 01:29:02;;;;;;;8.30;6.20;;;14.30;99.90;;;;;;5024263;28;20454;-76
2022/06/28 01:31:29;;;;;;;9.80;6.80;;;14.30;99.90;;;;;;5031583;28;20473;-76
2022/06/28 01:33:57;;;;;;;10.30;6.30;;;14.20;99.90;;;;;;5020482;28;20425;-76
2022/06/28 01:36:24;;;;;;;7.27;6.50;;;14.20;99.90;;;;;;5025601;28;20800;-76
2022/06/28 01:38:51;;;;;;;6.80;6.10;;;14.20;99.90;;;;;;5025107;28;20504;-76
2022/06/28 01:41:34;;;;;;;7.93;6.40;;;14.10;99.90;;;;;;5024559;28;20825;-76
2022/06/28 01:44:03;;;;;;;9.43;7.00;;;14.10;99.90;;;;;;5017889;28;20454;-76
2022/06/28 01:46:30;;;;;;;6.67;6.03;;;14.10;99.90;;;;;;5014089;28;20450;-76
2022/06/28 01:48:57;;;;;;;8.20;6.70;;;14.00;99.90;;;;;;5018681;28;21040;-76
2022/06/28 01:51:24;;;;;;;10.93;6.20;;;14.00;99.90;;;;;;5025297;28;20889;-76
2022/06/28 01:53:51;;;;;;;7.23;6.20;;;14.00;99.90;;;;;;5028134;28;20949;-76
2022/06/28 01:56:19;;;;;;;9.20;6.23;;;13.90;99.90;;;;;;5021685;28;20505;-76
2022/06/28 01:58:46;;;;;;;7.20;6.47;;;13.90;99.90;;;;;;5016026;28;20436;-76
2022/06/28 02:01:12;;;;;;;7.07;5.80;;;13.90;99.90;;;;;;5011312;28;20570;-76
2022/06/28 02:03:40;;;;;;;6.73;6.03;;;13.90;99.90;;;;;;5014540;28;20455;-76
2022/06/28 02:06:07;;;;;;;7.60;5.70;;;13.90;99.90;;;;;;5013478;28;20497;-76
2022/06/28 02:08:34;;;;;;;8.23;6.57;;;13.90;99.90;;;;;;5024620;28;20511;-76
2022/06/28 02:11:02;;;;;;;6.03;5.53;;;13.90;99.90;;;;;;5012373;28;20478;-76
2022/06/28 02:13:30;;;;;;;8.07;6.30;;;13.80;99.90;;;;;;5012158;28;20458;-76
2022/06/28 02:15:57;;;;;;;8.83;6.07;;;13.80;99.90;;;;;;5018378;28;20513;-76
2022/06/28 02:18:24;;;;;;;8.67;6.80;;;13.70;99.90;;;;;;5029918;28;20819;-76
2022/06/28 02:20:51;;;;;;;6.63;6.03;;;13.70;99.90;;;;;;5020595;28;20892;-76
2022/06/28 02:23:17;;;;;;;7.47;5.93;;;13.70;99.90;;;;;;5026901;28;20825;-76
2022/06/28 02:25:44;;;;;;;8.83;5.43;;;13.70;99.90;;;;;;5027922;28;20498;-76
2022/06/28 02:28:11;;;;;;;6.40;5.90;;;13.60;99.90;;;;;;5017509;28;20959;-76
2022/06/28 02:30:38;;;;;;;7.10;6.00;;;13.60;99.90;;;;;;5026351;28;20454;-76
2022/06/28 02:33:06;;;;;;;6.37;5.77;;;13.60;99.90;;;;;;5017295;28;20509;-76
2022/06/28 02:41:00;;;;;;;8.87;7.30;;;13.60;99.90;;;;;;5018777;28;21016;-76
2022/06/28 02:43:27;;;;;;;12.63;7.70;;;13.50;99.90;;;;;;5018219;28;20449;-75
2022/06/28 02:45:55;;;;;;;14.90;7.10;;;13.50;99.90;;;;;;5019849;28;20490;-76
2022/06/28 02:48:22;;;;;;;10.57;8.03;;;13.50;99.90;;;;;;5013974;28;20868;-76
2022/06/28 02:50:48;;;;;;;9.10;7.43;;;13.40;99.90;;;;;;5012802;28;20478;-76
2022/06/28 02:53:15;;;;;;;11.10;8.60;;;13.40;99.90;;;;;;5014614;28;20445;-76
2022/06/28 02:55:42;;;;;;;26.57;9.97;;;13.40;99.90;;;;;;5013719;28;20866;-76
2022/06/28 02:58:08;;;;;;;9.80;8.60;;;13.40;99.90;;;;;;5020181;28;20937;-76
2022/06/28 03:00:35;;;;;;;11.10;8.13;;;13.30;99.90;;;;;;5012818;28;20832;-76
2022/06/28 03:03:03;;;;;;;16.00;9.20;;;13.20;99.90;;;;;;5029808;28;21011;-76
2022/06/28 03:05:30;;;;;;;13.73;8.90;;;13.20;99.90;;;;;;5022893;28;20529;-76
2022/06/28 03:07:57;;;;;;;12.13;10.10;;;13.20;99.90;;;;;;5024519;28;20953;-76
2022/06/28 03:10:23;;;;;;;13.10;9.87;;;13.20;99.90;;;;;;5017814;28;20511;-76
2022/06/28 03:12:50;;;;;;;11.07;9.70;;;13.20;99.90;;;;;;5024449;28;20504;-76
2022/06/28 03:15:17;;;;;;;11.47;9.13;;;13.20;99.90;;;;;;5012237;28;20455;-76
2022/06/28 03:17:43;;;;;;;15.93;10.03;;;13.10;99.90;;;;;;5018631;28;20450;-76
2022/06/28 03:20:12;;;;;;;15.83;9.57;;;13.00;99.90;;;;;;5015181;28;20594;-76
2022/06/28 03:22:39;;;;;;;12.00;9.10;;;13.00;99.90;;;;;;5023398;28;20517;-76
2022/06/28 03:25:07;;;;;;;13.77;9.77;;;13.00;99.90;;;;;;5012211;28;20489;-76
2022/06/28 03:27:33;;;;;;;12.60;8.77;;;12.90;99.90;;;;;;5018036;28;21021;-76
2022/06/28 03:30:01;;;;;;;10.87;9.00;;;13.00;99.90;;;;;;5024467;28;20458;-76
2022/06/28 03:32:28;;;;;;;9.77;8.40;;;12.90;99.90;;;;;;5021270;28;20477;-76
2022/06/28 03:34:55;;;;;;;10.13;8.50;;;12.80;99.90;;;;;;5024183;28;20508;-76
2022/06/28 03:37:23;;;;;;;11.73;8.80;;;12.80;99.90;;;;;;5022402;28;20454;-77
2022/06/28 03:39:49;;;;;;;9.97;8.60;;;12.70;99.90;;;;;;5012552;28;20454;-76
2022/06/28 03:42:16;;;;;;;10.50;8.97;;;12.70;99.90;;;;;;5022323;28;20473;-76
2022/06/28 03:44:43;;;;;;;11.87;8.70;;;12.60;99.90;;;;;;5014503;28;20485;-77
2022/06/28 03:47:09;;;;;;;12.70;8.47;;;12.60;99.90;;;;;;5017955;28;20450;-76
2022/06/28 03:49:36;;;;;;;12.80;8.63;;;12.60;99.90;;;;;;5026853;28;20465;-76
2022/06/28 03:52:03;;;;;;;13.73;9.50;;;12.70;99.90;;;;;;5010743;28;20536;-76
2022/06/28 03:54:31;;;;;;;13.63;9.70;;;12.70;99.90;;;;;;5013014;28;20504;-76
2022/06/28 03:56:58;;;;;;;13.33;9.77;;;12.70;99.90;;;;;;5015272;28;20450;-76
2022/06/28 03:59:25;;;;;;;10.27;9.17;;;12.70;99.90;;;;;;5020632;28;20500;-76
2022/06/28 04:01:51;;;;;;;10.57;9.50;;;12.70;99.90;;;;;;5017730;28;20474;-76
2022/06/28 04:04:18;;;;;;;10.00;8.97;;;12.80;99.90;;;;;;5011717;28;20509;-76
2022/06/28 04:06:45;;;;;;;11.10;9.70;;;12.80;99.90;;;;;;5023605;28;20478;-76
2022/06/28 04:09:11;;;;;;;13.30;9.93;;;12.90;99.90;;;;;;5027294;28;20499;-76
2022/06/28 04:11:40;;;;;;;13.40;10.63;;;12.90;99.90;;;;;;5029489;28;20469;-74
2022/06/28 04:14:06;;;;;;;13.53;10.93;;;13.00;99.90;;;;;;5011893;28;20527;-74
2022/06/28 04:16:33;;;;;;;13.50;9.87;;;13.00;99.90;;;;;;5011345;28;20451;-75
2022/06/28 04:19:00;;;;;;;15.80;10.50;;;13.00;99.90;;;;;;5016516;28;20904;-74
2022/06/28 04:21:26;;;;;;;12.20;10.57;;;13.10;99.90;;;;;;5011243;28;20532;-74
2022/06/28 04:23:53;;;;;;;16.40;10.33;;;13.10;99.90;;;;;;5011946;28;20507;-74
2022/06/28 04:26:20;;;;;;;22.33;11.03;;;13.10;99.90;;;;;;5029159;28;20488;-74
2022/06/28 04:28:48;;;;;;;22.93;11.63;;;13.20;99.90;;;;;;5023573;28;20450;-74
2022/06/28 04:31:15;;;;;;;11.43;10.33;;;13.20;99.90;;;;;;5026438;28;20477;-74
2022/06/28 04:33:42;;;;;;;13.27;10.67;;;13.20;99.90;;;;;;5007995;28;21710;-74
2022/06/28 04:36:09;;;;;;;18.00;10.80;;;13.20;99.90;;;;;;5006317;28;20542;-74
2022/06/28 04:38:36;;;;;;;18.40;9.83;;;13.10;99.90;;;;;;5015445;28;20496;-74
2022/06/28 04:41:02;;;;;;;14.33;9.00;;;13.10;99.90;;;;;;5011329;28;20482;-74
2022/06/28 04:43:29;;;;;;;9.93;8.97;;;13.00;99.90;;;;;;5011269;28;20450;-74
2022/06/28 04:45:57;;;;;;;15.20;10.70;;;13.00;99.90;;;;;;5011233;28;20577;-74
2022/06/28 04:48:24;;;;;;;18.83;10.47;;;13.00;99.90;;;;;;5023007;28;20523;-74
2022/06/28 04:50:50;;;;;;;16.60;11.43;;;13.00;99.90;;;;;;5015350;28;21020;-74
2022/06/28 04:53:17;;;;;;;15.83;12.50;;;13.00;99.90;;;;;;5019486;28;20876;-74
2022/06/28 04:55:44;;;;;;;18.80;11.57;;;13.10;99.90;;;;;;5022727;28;20504;-72
2022/06/28 04:58:11;;;;;;;23.27;13.20;;;13.20;99.90;;;;;;5007511;28;20949;-73
2022/06/28 05:00:37;;;;;;;16.47;12.20;;;13.30;99.90;;;;;;5012627;28;21029;-74
2022/06/28 05:03:05;;;;;;;20.10;13.80;;;13.40;99.90;;;;;;5023591;28;20488;-74
2022/06/28 05:05:32;;;;;;;22.33;14.87;;;13.50;99.90;;;;;;5015682;28;20556;-74
2022/06/28 05:07:59;;;;;;;18.23;13.70;;;13.60;99.90;;;;;;5015766;28;20878;-73
2022/06/28 05:10:26;;;;;;;18.20;14.27;;;13.80;99.90;;;;;;5014514;28;20505;-74
2022/06/28 05:12:52;;;;;;;25.03;14.53;;;13.90;99.90;;;;;;5012412;28;20465;-74
2022/06/28 05:15:19;;;;;;;19.90;14.63;;;14.00;99.90;;;;;;5023933;28;20504;-73
2022/06/28 05:17:46;;;;;;;19.03;13.70;;;14.20;99.90;;;;;;5012828;28;20449;-73
2022/06/28 05:20:14;;;;;;;18.53;14.13;;;14.30;99.90;;;;;;5010765;28;20465;-73
2022/06/28 05:22:40;;;;;;;19.90;12.87;;;14.50;99.90;;;;;;5016693;28;20473;-73
2022/06/28 05:25:07;;;;;;;12.60;10.80;;;14.70;99.90;;;;;;5026553;28;20499;-78
2022/06/28 05:27:34;;;;;;;16.87;11.60;;;15.10;99.90;;;;;;5014910;28;20486;-77
2022/06/28 05:30:01;;;;;;;16.00;12.80;;;15.50;99.90;;;;;;5012953;28;20500;-77
2022/06/28 05:32:27;;;;;;;19.67;14.20;;;15.90;99.90;;;;;;5013273;28;20520;-76
2022/06/28 05:34:54;;;;;;;17.50;12.60;;;16.40;99.90;;;;;;5021150;28;20541;-77
2022/06/28 05:37:22;;;;;;;13.50;10.77;;;16.80;99.90;;;;;;5022113;28;20491;-77
2022/06/28 05:39:49;;;;;;;13.27;10.10;;;17.00;99.90;;;;;;5013010;28;20464;-77
2022/06/28 05:42:16;;;;;;;17.03;11.73;;;17.30;99.90;;;;;;5014258;28;20441;-76
2022/06/28 05:44:43;;;;;;;13.90;11.20;;;17.50;99.90;;;;;;5011673;28;20447;-75
2022/06/28 05:47:11;;;;;;;15.10;11.50;;;17.70;99.90;;;;;;5019156;28;20488;-76
2022/06/28 05:49:37;;;;;;;15.33;10.17;;;17.90;99.90;;;;;;5020098;28;20428;-76
2022/06/28 05:52:05;;;;;;;13.30;10.50;;;18.00;99.90;;;;;;5019720;28;20457;-75
2022/06/28 05:54:33;;;;;;;14.57;9.57;;;18.20;99.90;;;;;;5024616;28;20449;-75
2022/06/28 05:57:00;;;;;;;13.53;10.10;;;18.30;99.90;;;;;;5019357;28;20451;-76
2022/06/28 05:59:27;;;;;;;15.23;9.43;;;18.30;99.90;;;;;;5019199;28;20875;-74
2022/06/28 06:01:55;;;;;;;16.10;8.97;;;18.40;99.90;;;;;;5028852;28;20480;-74
2022/06/28 06:04:22;;;;;;;10.50;8.50;;;18.50;99.90;;;;;;5013201;28;20429;-74
2022/06/28 06:06:49;;;;;;;9.27;7.50;;;18.70;99.90;;;;;;5021903;28;20485;-73
2022/06/28 06:09:15;;;;;;;9.40;8.40;;;18.80;99.90;;;;;;5021844;28;20454;-74
2022/06/28 06:11:44;;;;;;;18.53;9.67;;;19.00;99.90;;;;;;5014108;28;20542;-73
2022/06/28 06:14:11;;;;;;;9.47;8.13;;;19.20;99.90;;;;;;5029631;28;20899;-73
2022/06/28 06:16:37;;;;;;;8.47;7.40;;;19.30;99.90;;;;;;5020138;28;20489;-74
2022/06/28 06:19:04;;;;;;;6.90;6.30;;;19.30;99.90;;;;;;5020129;28;20949;-74
2022/06/28 06:21:31;;;;;;;8.53;7.43;;;19.40;99.90;;;;;;5020359;28;20527;-74
2022/06/28 06:23:57;;;;;;;10.50;6.50;;;19.50;99.90;;;;;;5018447;28;20497;-74
2022/06/28 06:26:24;;;;;;;11.33;6.03;;;19.60;99.90;;;;;;5017545;28;20483;-74
2022/06/28 06:28:52;;;;;;;6.97;5.80;;;19.60;99.90;;;;;;5022842;28;20429;-73
2022/06/28 06:31:19;;;;;;;8.53;5.73;;;19.60;99.90;;;;;;5026396;28;20448;-74
2022/06/28 06:33:46;;;;;;;5.87;4.57;;;19.70;99.90;;;;;;5018520;28;20856;-73
2022/06/28 06:36:13;;;;;;;4.80;3.90;;;19.60;99.90;;;;;;5013158;28;20428;-74
2022/06/28 06:38:40;;;;;;;4.30;3.27;;;19.60;99.90;;;;;;5023591;28;20476;-73
2022/06/28 06:41:07;;;;;;;3.60;3.30;;;19.60;99.90;;;;;;5016114;28;20512;-73
2022/06/28 06:43:33;;;;;;;5.43;3.20;;;19.70;99.90;;;;;;5014876;28;20486;-74
2022/06/28 06:46:01;;;;;;;4.40;4.10;;;19.70;99.90;;;;;;5013558;28;21001;-74
2022/06/28 06:48:28;;;;;;;3.80;3.50;;;19.50;99.90;;;;;;5019029;28;20886;-73
2022/06/28 06:50:55;;;;;;;4.23;3.73;;;19.40;99.90;;;;;;5011297;28;20537;-73
2022/06/28 06:53:22;;;;;;;6.17;3.67;;;19.40;99.90;;;;;;5017841;28;20457;-74
2022/06/28 06:55:49;;;;;;;3.10;2.90;;;19.60;99.90;;;;;;5015826;28;20450;-74
2022/06/28 06:58:15;;;;;;;3.77;3.17;;;19.70;99.90;;;;;;5023793;28;20508;-74
2022/06/28 07:00:42;;;;;;;5.27;3.37;;;20.00;99.90;;;;;;5019609;28;20469;-73
2022/06/28 07:03:10;;;;;;;3.53;3.03;;;20.40;99.90;;;;;;5020661;28;20445;-74
2022/06/28 07:05:37;;;;;;;3.53;3.23;;;20.70;99.90;;;;;;5022593;28;20449;-74
2022/06/28 07:08:05;;;;;;;4.40;3.43;;;20.90;99.90;;;;;;5020028;28;20459;-74
2022/06/28 07:10:32;;;;;;;3.87;3.33;;;21.20;99.90;;;;;;5013016;28;20542;-74
2022/06/28 07:12:59;;;;;;;4.63;3.40;;;21.30;99.90;;;;;;5022190;28;20938;-74
2022/06/28 07:15:26;;;;;;;4.77;3.80;;;21.40;99.90;;;;;;5014830;28;20512;-74
2022/06/28 07:17:52;;;;;;;4.80;3.33;;;21.50;99.90;;;;;;5018706;28;20448;-74
2022/06/28 07:20:21;;;;;;;11.73;3.73;;;21.70;99.90;;;;;;5020551;28;20607;-74
2022/06/28 07:22:47;;;;;;;3.73;3.43;;;21.70;99.90;;;;;;5008915;28;20462;-74
2022/06/28 07:25:14;;;;;;;5.33;3.57;;;21.50;99.90;;;;;;5023469;28;20900;-74
2022/06/28 07:27:42;;;;;;;4.50;4.10;;;21.60;99.90;;;;;;5024026;28;20517;-74
2022/06/28 07:30:10;;;;;;;4.03;3.40;;;21.80;99.90;;;;;;5024418;28;21021;-74
2022/06/28 07:32:37;;;;;;;3.47;3.17;;;21.80;99.90;;;;;;5019767;28;21085;-74
2022/06/28 07:35:06;;;;;;;3.70;3.13;;;21.80;99.90;;;;;;5027239;28;20454;-74
2022/06/28 07:37:36;;;;;;;6.30;3.43;;;21.90;99.90;;;;;;5021054;28;20485;-74
2022/06/28 07:40:04;;;;;;;5.87;3.20;;;22.10;99.90;;;;;;5012364;28;20446;-74
2022/06/28 07:42:31;;;;;;;5.03;3.03;;;22.10;99.90;;;;;;5017823;28;20505;-74
2022/06/28 07:44:57;;;;;;;6.30;3.50;;;22.10;99.90;;;;;;5014499;28;20552;-74
2022/06/28 07:47:24;;;;;;;4.37;3.00;;;22.30;99.90;;;;;;5013863;28;20901;-74
2022/06/28 07:52:37;;;;;;;2.20;2.10;;;22.40;99.90;;;;;;5023884;28;20895;-74
2022/06/28 07:55:08;;;;;;;7.87;3.03;;;22.50;99.90;;;;;;5011167;28;20541;-74
2022/06/28 07:57:35;;;;;;;3.97;2.67;;;22.60;99.90;;;;;;5018602;28;20442;-74
2022/06/28 08:00:02;;;;;;;3.83;2.43;;;22.70;99.90;;;;;;5010579;28;20545;-74
2022/06/28 08:02:29;;;;;;;4.80;2.30;;;22.70;99.90;;;;;;5028522;28;20476;-74
2022/06/28 08:04:56;;;;;;;4.47;2.47;;;22.80;99.90;;;;;;5020031;28;20462;-74
2022/06/28 08:07:23;;;;;;;6.03;2.27;;;23.10;99.90;;;;;;5016119;28;20477;-74
2022/06/28 08:09:53;;;;;;;2.00;1.73;;;22.90;99.90;;;;;;5017513;28;20978;-74
2022/06/28 08:12:19;;;;;;;2.40;2.07;;;22.60;99.90;;;;;;5022497;28;21038;-74
2022/06/28 08:14:46;;;;;;;2.63;1.87;;;22.60;99.90;;;;;;5022738;28;20544;-74
2022/06/28 08:17:13;;;;;;;3.63;1.80;;;22.40;99.90;;;;;;5017498;28;20541;-74
2022/06/28 08:19:41;;;;;;;2.53;2.10;;;22.40;99.90;;;;;;5017251;28;20544;-76
2022/06/28 08:22:08;;;;;;;3.33;2.20;;;22.20;99.90;;;;;;5021524;28;20559;-74
2022/06/28 08:24:35;;;;;;;3.20;2.00;;;22.00;99.90;;;;;;5017808;28;20453;-74
2022/06/28 08:27:04;;;;;;;2.33;2.13;;;22.10;99.90;;;;;;5016373;28;20520;-74
2022/06/28 08:29:31;;;;;;;4.13;2.30;;;22.40;99.90;;;;;;5011445;28;20884;-74
2022/06/28 08:31:58;;;;;;;3.53;2.20;;;22.60;99.90;;;;;;5015607;28;20965;-74
2022/06/28 08:34:25;;;;;;;3.93;2.00;;;22.80;99.90;;;;;;5019931;28;21013;-74
2022/06/28 08:36:52;;;;;;;3.53;2.27;;;22.90;99.90;;;;;;5019791;28;20537;-74
2022/06/28 08:39:19;;;;;;;3.60;2.00;;;22.90;99.90;;;;;;5023656;28;20888;-74
2022/06/28 08:41:47;;;;;;;3.77;1.90;;;23.00;99.90;;;;;;5013106;28;20497;-74
2022/06/28 08:44:17;;;;;;;4.50;2.20;;;23.30;99.90;;;;;;5011890;28;20453;-75
2022/06/28 08:46:46;;;;;;;5.97;1.80;;;23.40;99.90;;;;;;5020857;28;20477;-74
2022/06/28 08:49:15;;;;;;;3.27;2.30;;;23.60;99.90;;;;;;5027416;28;20445;-74
2022/06/28 08:51:43;;;;;;;3.37;2.17;;;24.10;99.90;;;;;;5012414;28;20528;-74
2022/06/28 08:54:10;;;;;;;3.73;2.30;;;24.20;99.90;;;;;;5020136;28;20457;-74
2022/06/28 08:56:39;;;;;;;3.60;2.00;;;24.10;99.90;;;;;;5016850;28;20461;-75
2022/06/28 08:59:07;;;;;;;2.70;1.90;;;24.10;99.90;;;;;;5020082;28;20450;-74
2022/06/28 09:01:40;;;;;;;4.37;2.10;;;23.80;99.90;;;;;;5025908;28;20569;-74
2022/06/28 09:04:09;;;;;;;2.70;2.10;;;23.40;99.90;;;;;;5014305;28;20490;-74
2022/06/28 09:06:36;;;;;;;2.27;2.07;;;23.40;99.90;;;;;;5014358;28;20850;-75
2022/06/28 09:09:03;;;;;;;2.37;2.10;;;23.40;99.90;;;;;;5013677;28;20450;-74
2022/06/28 09:11:38;;;;;;;3.63;2.20;;;23.10;99.90;;;;;;5025021;28;20473;-75
2022/06/28 09:14:20;;;;;;;4.33;2.10;;;23.20;99.90;;;;;;5021197;28;20950;-75
2022/06/28 09:16:48;;;;;;;5.93;2.50;;;23.20;99.90;;;;;;5018917;28;20898;-74
2022/06/28 09:19:15;;;;;;;4.03;2.07;;;23.40;99.90;;;;;;5030445;28;20449;-75
2022/06/28 09:21:43;;;;;;;5.17;2.00;;;23.40;99.90;;;;;;5017697;28;21057;-76
2022/06/28 09:24:10;;;;;;;3.77;1.83;;;23.50;99.90;;;;;;5013951;28;20454;-73
2022/06/28 09:26:36;;;;;;;6.93;2.17;;;23.50;99.90;;;;;;5028865;28;20493;-73
2022/06/28 09:29:12;;;;;;;3.63;2.23;;;23.60;99.90;;;;;;5014597;28;20491;-73
2022/06/28 09:31:39;;;;;;;3.80;2.00;;;24.00;99.90;;;;;;5017816;28;20469;-73
2022/06/28 09:34:10;;;;;;;2.40;2.10;;;24.50;99.90;;;;;;5014795;28;20450;-73
2022/06/28 09:36:39;;;;;;;2.60;2.10;;;24.70;99.90;;;;;;5013486;28;20494;-73
2022/06/28 09:39:14;;;;;;;2.37;2.17;;;25.00;99.90;;;;;;5011592;28;20474;-72
2022/06/28 09:41:44;;;;;;;3.20;2.20;;;25.00;99.90;;;;;;5016046;28;20850;-73
2022/06/28 09:44:11;;;;;;;6.30;2.00;;;24.80;99.90;;;;;;5011524;28;20951;-73
2022/06/28 09:46:39;;;;;;;3.27;2.50;;;24.70;99.90;;;;;;5016366;28;20535;-73
2022/06/28 09:49:09;;;;;;;3.00;2.07;;;24.40;99.90;;;;;;5019030;28;20512;-73
2022/06/28 09:51:37;;;;;;;2.80;2.20;;;24.20;99.90;;;;;;5016649;28;20548;-73
2022/06/28 09:54:06;;;;;;;4.27;1.63;;;24.30;99.90;;;;;;5020016;28;20457;-73
2022/06/28 09:56:36;;;;;;;2.90;2.37;;;24.80;99.90;;;;;;5023791;28;20477;-73
2022/06/28 09:59:04;;;;;;;2.77;1.87;;;25.10;99.90;;;;;;5015446;28;20483;-73
2022/06/28 10:01:31;;;;;;;4.10;1.87;;;25.00;99.90;;;;;;5027889;28;20480;-73
2022/06/28 10:03:59;;;;;;;2.20;1.73;;;24.90;99.90;;;;;;5020093;28;20450;-73
2022/06/28 10:06:27;;;;;;;2.07;1.80;;;24.70;99.90;;;;;;5012559;28;20493;-73
2022/06/28 10:08:53;;;;;;;3.13;1.70;;;24.70;99.90;;;;;;5013252;28;20477;-73
2022/06/28 10:11:20;;;;;;;2.67;1.80;;;24.50;99.90;;;;;;5015022;28;20493;-73
2022/06/28 10:16:46;;;;;;;2.40;1.40;;;24.60;99.90;;;;;;5013580;28;20421;-73
2022/06/28 10:19:17;;;;;;;6.23;2.20;;;24.90;99.90;;;;;;5011343;28;20970;-73
2022/06/28 10:21:47;;;;;;;2.93;2.43;;;25.20;99.90;;;;;;5015699;28;21086;-73
2022/06/28 10:24:14;;;;;;;3.20;1.50;;;25.40;99.90;;;;;;5075478;22;21280;-74
2022/06/28 10:26:44;;;;;;;2.27;1.37;;;25.30;99.90;;;;;;5029647;28;20452;-73
2022/06/28 10:29:11;;;;;;;1.80;1.50;;;25.40;99.90;;;;;;5029117;28;20472;-74
2022/06/28 10:31:40;;;;;;;3.30;1.50;;;25.70;99.90;;;;;;5030719;28;20438;-73
2022/06/28 10:34:10;;;;;;;2.70;1.70;;;25.80;99.90;;;;;;5031095;28;21052;-72
2022/06/28 10:36:50;;;;;;;2.40;1.20;;;26.10;99.90;;;;;;5017469;28;20457;-73
2022/06/28 10:39:28;;;;;;;4.40;1.30;;;26.10;99.90;;;;;;5023834;28;20465;-72
2022/06/28 10:42:06;;;;;;;2.70;1.30;;;26.00;99.90;;;;;;5013137;28;20458;-72
2022/06/28 10:44:44;;;;;;;1.47;0.90;;;26.30;99.90;;;;;;5013801;28;20466;-72
2022/06/28 10:47:13;;;;;;;1.90;1.70;;;26.50;99.90;;;;;;5012541;28;20492;-72
2022/06/28 10:49:56;;;;;;;1.60;1.33;;;26.70;99.90;;;;;;5012376;28;20957;-74
2022/06/28 10:52:26;;;;;;;4.23;1.67;;;26.60;99.90;;;;;;5011885;28;20497;-73
2022/06/28 10:55:22;;;;;;;1.60;1.40;;;26.50;99.90;;;;;;5010644;28;20528;-74
2022/06/28 10:57:48;;;;;;;2.50;1.27;;;26.60;99.90;;;;;;5017771;28;20461;-75
2022/06/28 11:00:22;;;;;;;3.17;1.60;;;26.70;99.90;;;;;;5018981;28;20450;-74
2022/06/28 11:02:59;;;;;;;1.93;1.17;;;26.70;99.90;;;;;;5016644;28;20511;-73
2022/06/28 11:05:45;;;;;;;1.70;1.23;;;26.70;98.10;;;;;;5022230;28;20469;-74
2022/06/28 11:08:18;;;;;;;2.43;1.30;;;26.70;98.90;;;;;;5011118;28;20536;-74
2022/06/28 11:11:00;;;;;;;1.70;1.40;;;26.60;98.10;;;;;;5020727;28;20450;-74
2022/06/28 11:13:27;;;;;;;3.47;1.43;;;26.70;99.90;;;;;;5010986;28;20450;-75
2022/06/28 11:15:54;;;;;;;1.67;1.47;;;27.10;99.90;;;;;;5017883;28;20480;-74
2022/06/28 11:18:23;;;;;;;3.73;1.30;;;27.00;99.70;;;;;;5025500;28;20509;-75
2022/06/28 11:20:51;;;;;;;3.20;1.40;;;27.20;99.90;;;;;;5015674;28;20459;-75
2022/06/28 11:23:25;;;;;;;2.53;1.47;;;27.50;99.90;;;;;;5021566;28;20503;-75
2022/06/28 11:28:54;;;;;;;1.90;1.63;;;27.50;99.00;;;;;;5014316;28;20607;-75
2022/06/28 11:31:21;;;;;;;2.93;1.60;;;26.30;99.20;;;;;;5014642;28;20494;-74
2022/06/28 11:33:49;;;;;;;2.70;1.50;;;26.20;99.00;;;;;;5016472;28;20828;-75
2022/06/28 11:36:25;;;;;;;1.70;1.50;;;26.00;98.60;;;;;;5015479;28;20549;-74
2022/06/28 11:38:53;;;;;;;1.70;1.40;;;26.00;99.50;;;;;;5025425;28;20484;-75
2022/06/28 11:41:31;;;;;;;5.80;1.43;;;26.40;99.80;;;;;;5022960;28;20489;-74
2022/06/28 11:43:59;;;;;;;2.07;1.50;;;26.80;99.90;;;;;;5025777;28;20463;-73
2022/06/28 11:46:27;;;;;;;2.60;1.30;;;27.10;98.60;;;;;;5010971;28;20458;-73
2022/06/28 11:48:54;;;;;;;2.60;1.37;;;27.50;98.90;;;;;;5021232;28;20547;-73
2022/06/28 11:51:27;;;;;;;1.67;1.50;;;27.70;96.70;;;;;;5020891;28;20523;-74
2022/06/28 11:53:56;;;;;;;2.80;1.10;;;28.00;96.80;;;;;;5019101;28;20564;-74
2022/06/28 11:56:22;;;;;;;2.83;1.10;;;27.60;96.80;;;;;;5015575;28;20872;-73
2022/06/28 11:58:49;;;;;;;3.20;1.30;;;27.70;96.80;;;;;;5010346;28;20508;-74
2022/06/28 12:01:18;;;;;;;2.50;1.50;;;27.70;97.90;;;;;;5018890;28;20958;-73
2022/06/28 12:04:02;;;;;;;4.50;1.20;;;27.70;96.50;;;;;;5017682;28;20464;-74
2022/06/28 12:06:30;;;;;;;5.73;1.20;;;27.70;95.70;;;;;;5015838;28;20449;-73
2022/06/28 12:09:00;;;;;;;1.30;1.17;;;27.90;96.20;;;;;;5020629;28;20494;-74
2022/06/28 12:11:29;;;;;;;3.20;1.70;;;27.90;97.50;;;;;;5010757;28;20451;-73
2022/06/28 12:13:58;;;;;;;3.73;1.10;;;27.60;95.60;;;;;;5018674;28;20464;-74
2022/06/28 12:16:27;;;;;;;1.83;1.30;;;27.30;94.90;;;;;;5017772;28;20453;-73
2022/06/28 12:18:56;;;;;;;2.40;1.20;;;27.30;95.20;;;;;;5011915;28;20455;-73
2022/06/28 12:21:22;;;;;;;3.40;1.30;;;27.20;97.50;;;;;;5018064;28;20474;-73
2022/06/28 12:23:51;;;;;;;1.90;1.70;;;27.40;96.60;;;;;;5030301;28;20995;-73
2022/06/28 12:26:19;;;;;;;1.40;1.27;;;27.80;96.30;;;;;;5013614;28;20454;-75
2022/06/28 12:28:46;;;;;;;3.13;1.50;;;28.00;95.50;;;;;;5014936;28;20488;-74
2022/06/28 12:31:13;;;;;;;1.70;1.30;;;28.30;95.10;;;;;;5026690;28;20516;-74
2022/06/28 12:33:40;;;;;;;2.03;1.33;;;28.40;94.70;;;;;;5015951;28;20446;-75
2022/06/28 12:36:07;;;;;;;2.90;1.23;;;28.40;94.20;;;;;;5020541;28;20848;-74
2022/06/28 12:38:33;;;;;;;1.50;1.17;;;28.30;95.00;;;;;;5026693;28;21114;-75
2022/06/28 12:41:00;;;;;;;1.73;1.30;;;28.10;94.50;;;;;;5020851;28;20974;-75
2022/06/28 12:43:28;;;;;;;2.07;1.40;;;27.90;95.60;;;;;;5012355;28;20450;-75
2022/06/28 12:45:55;;;;;;;2.07;1.20;;;27.90;96.30;;;;;;5016564;28;20530;-73
2022/06/28 12:48:22;;;;;;;2.60;1.10;;;28.00;95.50;;;;;;5024409;28;20477;-75
2022/06/28 12:50:48;;;;;;;2.90;1.10;;;28.20;94.60;;;;;;5028793;28;20458;-75
2022/06/28 12:53:15;;;;;;;1.77;1.50;;;27.90;96.40;;;;;;5024085;28;20445;-75
2022/06/28 12:55:41;;;;;;;2.63;1.00;;;28.20;95.00;;;;;;5026836;28;20469;-75
2022/06/28 12:58:08;;;;;;;2.77;1.30;;;28.40;96.70;;;;;;5025790;28;20452;-75
2022/06/28 13:00:36;;;;;;;4.20;1.20;;;28.60;95.70;;;;;;5030555;28;20500;-75
2022/06/28 13:03:03;;;;;;;1.40;1.03;;;28.80;95.40;;;;;;5015755;28;20454;-75